Time;durP1;ratioP1;P1;durP2;ratioP2;P2;SDS_P1;SDS_P2;PMS_P1;PMS_P2;Temp;Humidity;BMP_temperature;BMP_pressure;BME280_temperature;BME280_humidity;BME280_pressure;Samples;Min_cycle;Max_cycle;Signal;HPM_P1;HPM_P2
2022/04/24 00:16:23;;;;;;;8.02;6.55;;;;;;;11.71;52.22;99445.03;5112581;28;20040;-82
2022/04/24 00:18:53;;;;;;;7.18;6.32;;;;;;;11.69;52.00;99442.59;5100167;28;20055;-82
2022/04/24 00:21:22;;;;;;;10.40;6.10;;;;;;;11.69;52.08;99441.78;5095840;28;20056;-83
2022/04/24 00:23:54;;;;;;;8.48;6.60;;;;;;;11.66;52.07;99432.50;5098118;28;20048;-84
2022/04/24 00:26:26;;;;;;;7.57;5.97;;;;;;;11.78;51.89;99445.91;5096872;28;20062;-83
2022/04/24 00:29:01;;;;;;;7.13;5.50;;;;;;;11.66;51.96;99426.44;5097468;28;20055;-82
2022/04/24 00:32:18;;;;;;;8.38;5.85;;;;;;;11.81;51.85;99453.38;5088292;28;20097;-85
2022/04/24 00:35:16;;;;;;;7.70;6.50;;;;;;;11.71;51.79;99431.94;5049215;28;20125;-83
2022/04/24 00:38:04;;;;;;;8.38;6.35;;;;;;;11.75;52.12;99436.59;5054179;28;20056;-83
2022/04/24 00:40:35;;;;;;;8.77;5.38;;;;;;;11.76;52.18;99447.88;5054399;28;20459;-83
2022/04/24 00:43:05;;;;;;;8.65;6.20;;;;;;;11.68;52.55;99451.47;5054641;28;20055;-82
2022/04/24 00:45:50;;;;;;;;;;;;;;;;;;;;;
2022/04/24 00:48:20;;;;;;;7.15;6.00;;;;;;;11.50;52.99;99438.84;5100134;28;20130;-83
2022/04/24 00:53:58;;;;;;;6.35;5.75;;;;;;;11.43;53.66;99442.41;5095775;28;20092;-80
2022/04/24 00:56:30;;;;;;;7.57;6.78;;;;;;;11.30;53.69;99419.56;5088148;28;20044;-80
2022/04/24 00:59:05;;;;;;;8.02;6.45;;;;;;;11.38;54.16;99429.88;5096251;28;20066;-81
2022/04/24 01:01:40;;;;;;;8.15;6.50;;;;;;;11.19;54.68;99420.88;5095953;28;20599;-81
2022/04/24 01:04:10;;;;;;;7.78;6.78;;;;;;;11.22;54.58;99422.31;5095885;28;20056;-81
2022/04/24 01:06:52;;;;;;;8.55;6.50;;;;;;;11.25;54.69;99427.97;5097003;28;20070;-79
2022/04/24 01:09:21;;;;;;;9.27;6.80;;;;;;;11.17;54.51;99408.97;5095557;28;20048;-80
2022/04/24 01:11:54;;;;;;;7.38;6.63;;;;;;;11.19;54.56;99420.06;5096764;28;20094;-80
2022/04/24 01:14:34;;;;;;;8.82;6.85;;;;;;;11.17;54.49;99403.75;5097147;28;20048;-80
2022/04/24 01:42:51;;;;;;;8.50;6.88;;;;;;;10.56;57.76;99416.47;4914494;28;20077;-81
2022/04/24 01:45:53;;;;;;;9.80;7.35;;;;;;;10.58;57.49;99419.69;5015901;28;20526;-81
2022/04/24 01:48:26;;;;;;;11.30;7.38;;;;;;;10.50;57.77;99407.53;5031188;28;20045;-82
2022/04/24 01:53:45;;;;;;;11.40;7.28;;;;;;;10.40;58.00;99409.63;5085859;28;19973;-82
2022/04/24 01:56:13;;;;;;;9.95;7.60;;;;;;;10.39;58.13;99405.44;5096620;28;20101;-81
2022/04/24 02:02:13;;;;;;;11.18;7.55;;;;;;;10.45;58.30;99422.16;5075779;28;20048;-82
2022/04/24 02:04:40;;;;;;;8.55;7.38;;;;;;;10.35;58.36;99406.78;5069583;28;20618;-81
2022/04/24 02:07:15;;;;;;;8.07;7.00;;;;;;;10.42;58.45;99412.88;5076952;28;20052;-81
2022/04/24 02:09:42;;;;;;;10.43;7.47;;;;;;;10.41;58.25;99420.91;5089765;22;20044;-78
2022/04/24 02:12:09;;;;;;;8.13;7.18;;;;;;;10.41;58.03;99407.84;5116613;28;20512;-80
2022/04/24 02:14:37;;;;;;;8.10;7.10;;;;;;;10.43;57.78;99414.50;5119923;28;20484;-79
2022/04/24 02:17:05;;;;;;;9.68;7.35;;;;;;;10.41;57.70;99416.50;5124431;28;20060;-79
2022/04/24 02:19:31;;;;;;;8.60;7.63;;;;;;;10.45;57.81;99422.16;5125458;28;20545;-80
2022/04/24 02:21:58;;;;;;;9.57;7.47;;;;;;;10.38;58.46;99419.50;5106745;28;20131;-80
2022/04/24 02:24:24;;;;;;;10.05;7.82;;;;;;;10.27;59.15;99426.00;5106620;28;20055;-79
2022/04/24 02:26:51;;;;;;;7.70;6.70;;;;;;;10.15;59.94;99422.22;5106631;28;20511;-79
2022/04/24 02:29:18;;;;;;;10.45;7.68;;;;;;;9.99;60.00;99422.41;5102774;28;20059;-80
2022/04/24 02:31:46;;;;;;;12.38;8.20;;;;;;;9.84;60.59;99416.38;5102012;28;20464;-79
2022/04/24 02:34:13;;;;;;;9.80;7.88;;;;;;;9.71;61.46;99419.63;5098412;28;20578;-79
2022/04/24 02:36:39;;;;;;;8.65;7.75;;;;;;;9.61;61.63;99419.88;5097325;28;20111;-79
2022/04/24 02:39:06;;;;;;;10.00;7.20;;;;;;;9.49;62.08;99426.53;5097374;28;20143;-78
2022/04/24 02:41:33;;;;;;;13.02;7.60;;;;;;;9.40;62.74;99422.41;5097130;28;20107;-78
2022/04/24 02:43:59;;;;;;;20.75;8.27;;;;;;;9.30;63.25;99421.84;5097056;28;20425;-78
2022/04/24 02:46:26;;;;;;;9.45;7.65;;;;;;;9.21;63.98;99417.66;5096268;28;20126;-78
2022/04/24 02:48:54;;;;;;;9.93;8.00;;;;;;;9.16;64.30;99417.38;5096459;28;20134;-79
2022/04/24 02:51:20;;;;;;;8.23;7.43;;;;;;;9.12;64.57;99416.09;5096883;28;20084;-78
2022/04/24 02:53:47;;;;;;;13.05;7.60;;;;;;;9.08;64.24;99417.44;5098101;28;20052;-77
2022/04/24 02:56:14;;;;;;;8.85;7.25;;;;;;;9.18;64.35;99431.06;5099234;28;20060;-78
2022/04/24 02:58:40;;;;;;;9.35;8.30;;;;;;;9.28;64.06;99424.63;5097223;28;20051;-79
2022/04/24 03:01:08;;;;;;;8.98;7.70;;;;;;;9.27;63.97;99436.03;5097778;28;20044;-79
2022/04/24 03:03:38;;;;;;;9.43;7.80;;;;;;;9.17;64.46;99432.88;5097688;28;20048;-79
2022/04/24 03:06:06;;;;;;;9.45;7.47;;;;;;;9.15;64.36;99428.81;5097670;28;20517;-80
2022/04/24 03:08:34;;;;;;;8.90;7.88;;;;;;;9.07;64.49;99431.47;5096737;28;20083;-80
2022/04/24 03:11:01;;;;;;;9.27;7.65;;;;;;;9.01;65.61;99426.97;5106679;28;20135;-81
2022/04/24 03:13:27;;;;;;;9.95;7.88;;;;;;;8.96;65.29;99422.28;5117314;28;20126;-80
2022/04/24 03:15:54;;;;;;;8.82;7.72;;;;;;;9.03;64.96;99424.97;5116878;28;20139;-78
2022/04/24 03:18:21;;;;;;;10.90;8.25;;;;;;;9.15;64.40;99418.38;5116459;28;20126;-78
2022/04/24 03:20:47;;;;;;;9.63;8.10;;;;;;;9.15;64.38;99421.78;5116814;28;20426;-79
2022/04/24 03:23:15;;;;;;;9.82;7.80;;;;;;;9.15;64.51;99420.97;5116766;28;20437;-78
2022/04/24 03:25:42;;;;;;;9.77;8.25;;;;;;;9.25;64.22;99408.50;5117380;28;20138;-79
2022/04/24 03:28:09;;;;;;;11.30;8.20;;;;;;;9.23;64.47;99410.47;5117467;28;20055;-78
2022/04/24 03:30:35;;;;;;;9.85;8.80;;;;;;;9.20;64.60;99419.47;5117551;28;20054;-78
2022/04/24 03:33:02;;;;;;;9.77;8.35;;;;;;;9.07;64.90;99411.41;5116813;28;20135;-78
2022/04/24 03:35:29;;;;;;;10.00;8.68;;;;;;;9.01;65.34;99421.75;5116693;28;20123;-79
2022/04/24 03:37:56;;;;;;;11.88;8.75;;;;;;;9.01;65.29;99419.13;5117439;28;20508;-79
2022/04/24 03:40:24;;;;;;;9.50;8.35;;;;;;;9.01;65.61;99416.53;5121300;28;20134;-79
2022/04/24 03:42:50;;;;;;;10.50;8.48;;;;;;;8.89;65.65;99422.16;5134037;28;20048;-80
2022/04/24 03:45:17;;;;;;;9.13;8.05;;;;;;;8.84;66.02;99416.66;5132552;28;20078;-79
2022/04/24 03:47:43;;;;;;;9.82;8.57;;;;;;;8.75;66.54;99412.47;5131742;28;20083;-81
2022/04/24 03:50:13;;;;;;;10.30;8.93;;;;;;;8.83;66.62;99412.44;5123284;27;20071;-81
2022/04/24 03:52:40;;;;;;;9.80;8.55;;;;;;;8.95;66.09;99413.66;5121041;28;20040;-79
2022/04/24 03:55:08;;;;;;;9.70;8.70;;;;;;;8.88;66.46;99412.72;5119124;28;20071;-80
2022/04/24 03:57:36;;;;;;;10.40;8.90;;;;;;;8.96;66.12;99415.28;5120929;28;20555;-80
2022/04/24 04:00:03;;;;;;;10.75;9.40;;;;;;;8.99;66.08;99416.69;5118601;28;20079;-80
2022/04/24 04:02:30;;;;;;;10.38;8.85;;;;;;;8.89;66.15;99419.56;5121776;28;20054;-81
2022/04/24 04:04:57;;;;;;;10.95;9.00;;;;;;;8.80;66.86;99423.22;5123466;28;20131;-81
2022/04/24 04:07:23;;;;;;;12.05;9.80;;;;;;;8.85;66.56;99420.91;5120767;28;20082;-80
2022/04/24 04:09:50;;;;;;;12.77;8.98;;;;;;;8.87;66.38;99420.72;5117642;28;20092;-81
2022/04/24 04:12:16;;;;;;;11.73;9.63;;;;;;;8.80;66.65;99425.81;5118741;28;20093;-82
2022/04/24 04:14:44;;;;;;;12.80;9.68;;;;;;;8.78;66.71;99432.19;5117983;28;20149;-79
2022/04/24 04:17:11;;;;;;;13.93;9.35;;;;;;;8.77;66.93;99431.38;5118006;28;20075;-81
2022/04/24 04:19:38;;;;;;;11.05;9.85;;;;;;;8.73;67.00;99435.31;5117691;28;20289;-82
2022/04/24 04:22:05;;;;;;;13.98;9.52;;;;;;;8.73;67.19;99435.31;5117318;28;20051;-83
2022/04/24 04:24:32;;;;;;;10.60;9.35;;;;;;;8.73;66.99;99437.94;5119513;28;20059;-83
2022/04/24 04:26:58;;;;;;;10.85;9.75;;;;;;;8.60;67.45;99435.88;5118447;28;20691;-83
2022/04/24 04:29:25;;;;;;;12.20;9.75;;;;;;;8.68;67.34;99436.81;5117708;28;20111;-81
2022/04/24 04:31:53;;;;;;;11.10;9.50;;;;;;;8.67;67.14;99436.00;5118233;28;20131;-82
2022/04/24 04:34:19;;;;;;;13.95;9.75;;;;;;;8.69;67.59;99436.66;5118226;28;20052;-81
2022/04/24 04:36:46;;;;;;;13.07;9.98;;;;;;;8.65;67.28;99435.38;5118207;28;20628;-82
2022/04/24 04:39:13;;;;;;;11.13;9.70;;;;;;;8.70;66.92;99435.66;5117211;28;20107;-80
2022/04/24 04:41:40;;;;;;;10.98;9.75;;;;;;;8.74;67.17;99434.34;5117819;28;20146;-80
2022/04/24 04:44:07;;;;;;;11.15;9.70;;;;;;;8.81;66.80;99450.91;5118716;28;20044;-80
2022/04/24 04:46:33;;;;;;;11.02;9.85;;;;;;;8.78;66.83;99451.25;5117693;28;20088;-80
2022/04/24 04:49:01;;;;;;;13.00;9.95;;;;;;;8.88;66.47;99454.47;5116393;28;20119;-79
2022/04/24 04:51:28;;;;;;;12.55;9.95;;;;;;;8.80;67.26;99446.69;5116587;28;20126;-79
2022/04/24 04:53:55;;;;;;;13.25;10.30;;;;;;;8.77;67.57;99461.88;5117287;28;20040;-79
2022/04/24 04:56:22;;;;;;;11.57;9.82;;;;;;;8.56;68.46;99454.66;5114247;28;20048;-76
2022/04/24 04:58:49;;;;;;;11.30;10.02;;;;;;;8.61;68.20;99458.38;5115950;28;20572;-78
2022/04/24 05:01:15;;;;;;;13.82;10.60;;;;;;;8.65;68.51;99458.84;5120357;28;20146;-77
2022/04/24 05:03:42;;;;;;;12.10;10.25;;;;;;;8.80;68.12;99464.94;5121293;28;20126;-77
2022/04/24 05:06:10;;;;;;;12.80;9.98;;;;;;;8.84;67.78;99474.06;5132209;28;20081;-77
2022/04/24 05:08:37;;;;;;;11.38;9.25;;;;;;;8.99;67.24;99477.50;5133430;28;20050;-78
2022/04/24 05:11:06;;;;;;;10.93;9.70;;;;;;;9.23;66.47;99478.34;5132343;28;20168;-77
2022/04/24 05:13:33;;;;;;;11.80;9.75;;;;;;;9.26;66.57;99472.75;5134161;28;20091;-82
2022/04/24 05:15:59;;;;;;;12.85;10.32;;;;;;;9.23;65.72;99486.97;5118305;28;20126;-79
2022/04/24 05:18:26;;;;;;;11.95;10.65;;;;;;;9.38;65.63;99487.03;5117024;28;20130;-80
2022/04/24 05:20:53;;;;;;;12.52;10.20;;;;;;;9.43;65.51;99494.34;5117737;28;20051;-81
2022/04/24 05:23:21;;;;;;;14.55;10.82;;;;;;;9.54;65.58;99497.31;5120309;28;20138;-78
2022/04/24 05:25:48;;;;;;;12.38;11.07;;;;;;;9.60;65.09;99494.00;5118086;28;20070;-78
2022/04/24 05:28:14;;;;;;;11.93;10.70;;;;;;;9.78;65.12;99495.47;5116390;28;20047;-80
2022/04/24 05:30:41;;;;;;;12.55;10.52;;;;;;;9.90;64.55;99496.66;5120737;28;20309;-81
2022/04/24 05:33:08;;;;;;;14.48;11.25;;;;;;;9.93;64.67;99496.28;5119597;28;20074;-81
2022/04/24 05:35:34;;;;;;;12.35;11.05;;;;;;;10.15;63.60;99502.44;5119103;28;20130;-83
2022/04/24 05:38:01;;;;;;;14.88;11.48;;;;;;;10.20;63.40;99498.31;5117261;28;20049;-80
2022/04/24 05:40:29;;;;;;;13.13;10.48;;;;;;;10.50;62.89;99508.72;5116438;28;20056;-79
2022/04/24 05:42:56;;;;;;;12.55;10.00;;;;;;;10.92;61.03;99497.53;5115950;28;20099;-79
2022/04/24 05:45:24;;;;;;;13.40;10.80;;;;;;;10.96;60.63;99509.25;5116362;28;20066;-79
2022/04/24 05:47:51;;;;;;;14.25;10.50;;;;;;;11.35;59.51;99506.19;5115300;28;20059;-78
2022/04/24 05:50:18;;;;;;;12.73;10.25;;;;;;;11.59;58.50;99515.47;5121457;27;20134;-80
2022/04/24 05:52:45;;;;;;;11.80;10.45;;;;;;;12.18;56.80;99513.28;5123694;28;20126;-79
2022/04/24 05:55:12;;;;;;;11.70;10.07;;;;;;;11.75;57.24;99512.59;5120564;28;20484;-76
2022/04/24 05:57:41;;;;;;;11.57;10.40;;;;;;;11.91;57.15;99521.97;5121479;28;20440;-78
2022/04/24 06:00:09;;;;;;;12.23;10.60;;;;;;;11.92;57.83;99526.22;5122353;28;20244;-80
2022/04/24 06:02:40;;;;;;;11.35;10.20;;;;;;;12.38;56.03;99509.94;5123056;28;20087;-80
2022/04/24 06:05:08;;;;;;;12.07;10.77;;;;;;;12.08;57.03;99512.03;5122484;28;20048;-80
2022/04/24 06:07:34;;;;;;;13.45;10.68;;;;;;;12.20;57.03;99520.97;5123784;28;20525;-81
2022/04/24 06:10:01;;;;;;;12.13;10.82;;;;;;;12.19;56.92;99522.78;5122792;28;20134;-80
2022/04/24 06:12:27;;;;;;;13.35;11.38;;;;;;;12.02;57.88;99513.59;5123971;28;20119;-81
2022/04/24 06:14:55;;;;;;;11.77;10.43;;;;;;;11.97;58.46;99518.59;5124832;28;20103;-82
2022/04/24 06:17:22;;;;;;;13.68;11.07;;;;;;;11.95;58.54;99510.13;5124284;28;20175;-81
2022/04/24 06:19:49;;;;;;;14.20;10.43;;;;;;;12.36;57.67;99506.72;5122865;28;20948;-82
2022/04/24 06:22:15;;;;;;;12.40;11.02;;;;;;;12.55;56.89;99516.50;5124035;28;20130;-79
2022/04/24 06:24:42;;;;;;;13.00;11.70;;;;;;;12.16;56.46;99517.91;5122809;28;20046;-80
2022/04/24 06:27:08;;;;;;;12.07;10.23;;;;;;;12.45;55.17;99510.78;5121228;28;20114;-77
2022/04/24 06:29:38;;;;;;;12.20;10.90;;;;;;;12.48;54.20;99510.41;5118157;28;20051;-79
2022/04/24 06:32:08;;;;;;;12.00;10.27;;;;;;;12.90;54.72;99515.38;5120984;28;20155;-80
2022/04/24 06:34:36;;;;;;;12.25;10.85;;;;;;;12.70;53.77;99509.28;5121093;28;20053;-79
2022/04/24 06:37:03;;;;;;;12.57;11.27;;;;;;;12.67;53.58;99509.69;5121573;28;20138;-80
2022/04/24 06:39:30;;;;;;;12.68;10.95;;;;;;;11.94;54.72;99509.31;5120696;27;20096;-79
2022/04/24 06:41:56;;;;;;;12.27;10.98;;;;;;;11.80;55.96;99515.47;5121527;28;20054;-80
2022/04/24 06:44:24;;;;;;;12.75;11.45;;;;;;;11.54;56.42;99518.66;5121715;28;20075;-80
2022/04/24 06:46:51;;;;;;;12.95;11.30;;;;;;;11.60;56.11;99504.00;5120949;28;20052;-79
2022/04/24 06:49:18;;;;;;;13.10;11.70;;;;;;;11.99;55.06;99513.16;5121065;28;20067;-79
2022/04/24 06:51:45;;;;;;;12.80;10.63;;;;;;;11.67;55.51;99519.78;5120940;27;20047;-78
2022/04/24 06:54:12;;;;;;;14.25;11.15;;;;;;;12.20;55.15;99518.34;5121122;28;20043;-79
2022/04/24 06:56:39;;;;;;;13.80;11.32;;;;;;;12.86;53.74;99516.78;5121444;28;20530;-79
2022/04/24 06:59:06;;;;;;;13.00;11.43;;;;;;;12.64;53.94;99515.31;5119666;28;20051;-79
2022/04/24 07:01:32;;;;;;;12.63;11.32;;;;;;;12.44;53.48;99519.66;5118250;28;20540;-80
2022/04/24 07:03:59;;;;;;;12.38;11.10;;;;;;;12.54;54.50;99520.13;5118568;28;20137;-80
2022/04/24 07:06:27;;;;;;;15.07;11.23;;;;;;;13.46;52.35;99523.00;5119095;28;20131;-80
2022/04/24 07:08:54;;;;;;;16.05;12.40;;;;;;;13.27;52.35;99515.88;5118403;28;20130;-80
2022/04/24 07:11:22;;;;;;;16.23;11.50;;;;;;;13.64;51.99;99517.13;5118158;28;20044;-80
2022/04/24 07:13:52;;;;;;;12.88;10.98;;;;;;;13.51;51.30;99517.13;5119616;28;20043;-80
2022/04/24 07:16:19;;;;;;;13.80;11.98;;;;;;;13.47;51.61;99511.47;5118898;28;20115;-79
2022/04/24 07:18:45;;;;;;;15.02;11.05;;;;;;;13.50;51.66;99510.25;5119422;28;20489;-81
2022/04/24 07:21:12;;;;;;;13.98;12.30;;;;;;;13.39;51.92;99518.72;5119347;28;20496;-80
2022/04/24 07:23:40;;;;;;;13.55;11.75;;;;;;;13.09;52.14;99523.53;5118401;28;20046;-81
2022/04/24 07:26:06;;;;;;;13.07;11.48;;;;;;;12.87;53.16;99525.47;5117608;28;20134;-80
2022/04/24 07:28:33;;;;;;;13.18;11.88;;;;;;;13.31;51.74;99521.56;5117439;28;20457;-81
2022/04/24 07:30:59;;;;;;;13.20;11.80;;;;;;;13.20;51.94;99534.28;5119354;28;20432;-80
2022/04/24 07:33:26;;;;;;;12.30;11.05;;;;;;;13.55;52.68;99532.28;5119530;28;20128;-80
2022/04/24 07:35:53;;;;;;;13.05;10.88;;;;;;;14.03;49.97;99526.81;5122208;28;20140;-80
2022/04/24 07:38:19;;;;;;;13.20;11.50;;;;;;;13.85;50.57;99532.69;5122102;28;20073;-80
2022/04/24 07:40:48;;;;;;;12.10;10.90;;;;;;;14.06;51.01;99525.59;5122986;28;20416;-80
2022/04/24 07:43:14;;;;;;;13.77;11.75;;;;;;;14.60;48.72;99538.41;5120171;28;20044;-80
2022/04/24 07:45:43;;;;;;;13.90;11.27;;;;;;;14.39;49.12;99533.38;5118236;28;20469;-78
2022/04/24 07:48:12;;;;;;;13.23;11.45;;;;;;;14.92;47.80;99526.91;5119855;28;20052;-80
2022/04/24 07:50:40;;;;;;;13.40;12.10;;;;;;;14.64;48.54;99528.28;5119286;28;20074;-80
2022/04/24 07:53:07;;;;;;;14.27;11.30;;;;;;;14.72;47.92;99530.66;5118857;28;20044;-79
2022/04/24 07:55:35;;;;;;;12.15;10.85;;;;;;;14.50;48.59;99532.78;5116604;28;20044;-78
2022/04/24 07:58:03;;;;;;;11.65;10.55;;;;;;;15.00;47.48;99525.06;5116957;28;20040;-79
2022/04/24 08:00:32;;;;;;;12.18;10.88;;;;;;;15.16;46.97;99521.91;5116922;28;20054;-78
2022/04/24 08:03:01;;;;;;;12.25;10.98;;;;;;;15.53;46.58;99518.41;5113499;28;20083;-78
2022/04/24 08:05:29;;;;;;;13.65;11.40;;;;;;;15.97;44.88;99515.81;5116468;28;20043;-77
2022/04/24 08:07:58;;;;;;;12.25;10.82;;;;;;;15.75;45.08;99526.75;5116673;28;20048;-80
2022/04/24 08:10:27;;;;;;;12.88;11.07;;;;;;;15.88;45.47;99524.00;5110876;28;20060;-78
2022/04/24 08:13:11;;;;;;;12.20;11.00;;;;;;;16.03;45.03;99517.59;5115871;28;20177;-78
2022/04/24 08:22:03;;;;;;;12.95;10.93;;;;;;;16.02;44.31;99523.88;5013457;28;20134;-80
2022/04/24 08:24:35;;;;;;;;;;;;;;;16.12;44.19;99516.25;4996247;28;20050;-79
2022/04/24 08:27:11;;;;;;;13.32;11.45;;;;;;;16.25;43.66;99508.19;5011997;28;19964;-79
2022/04/24 08:29:40;;;;;;;11.85;10.65;;;;;;;16.62;43.33;99505.53;5048555;28;20534;-79
2022/04/24 08:32:26;;;;;;;14.50;10.57;;;;;;;16.54;43.24;99501.38;5081145;28;20051;-81
2022/04/24 08:38:12;;;;;;;16.92;11.15;;;;;;;16.12;44.25;99505.69;5075661;28;20082;-80
2022/04/24 08:40:57;;;;;;;14.48;11.60;;;;;;;15.85;44.99;99516.53;5082314;28;20056;-80
2022/04/24 08:43:25;;;;;;;13.23;11.02;;;;;;;16.95;43.13;99521.81;5081259;28;20447;-79
2022/04/24 08:45:53;;;;;;;13.23;11.93;;;;;;;16.38;43.76;99515.97;5080129;28;20045;-79
2022/04/24 08:48:20;;;;;;;16.30;12.02;;;;;;;16.90;43.48;99519.03;5078405;28;20063;-79
2022/04/24 08:50:49;;;;;;;16.05;11.45;;;;;;;17.02;42.85;99511.13;5077874;28;20104;-80
2022/04/24 08:53:16;;;;;;;13.38;11.23;;;;;;;16.43;43.95;99520.59;5077935;28;20048;-80
2022/04/24 08:55:43;;;;;;;12.98;11.25;;;;;;;16.29;43.63;99521.78;5073072;28;20104;-78
2022/04/24 08:58:09;;;;;;;15.73;11.00;;;;;;;17.05;42.86;99510.66;5064215;28;20680;-80
2022/04/24 09:00:36;;;;;;;16.83;11.07;;;;;;;16.99;42.63;99522.97;5071678;28;20123;-81
2022/04/24 09:03:03;;;;;;;15.48;12.10;;;;;;;17.17;42.10;99514.97;5073849;28;20140;-79
2022/04/24 09:05:32;;;;;;;11.93;10.73;;;;;;;17.21;42.99;99516.13;5060905;28;20100;-81
2022/04/24 09:08:11;;;;;;;13.40;11.75;;;;;;;16.49;43.28;99525.00;5077105;28;20041;-80
2022/04/24 09:10:49;;;;;;;13.80;11.88;;;;;;;15.97;44.75;99511.34;5078953;28;20540;-81
2022/04/24 09:13:26;;;;;;;13.75;11.02;;;;;;;17.16;42.88;99517.84;5060169;28;20566;-82
2022/04/24 09:15:55;;;;;;;12.00;10.68;;;;;;;17.28;42.74;99513.38;5068472;28;20044;-81
2022/04/24 09:18:21;;;;;;;12.73;11.43;;;;;;;16.79;43.04;99512.66;5066369;28;20083;-80
2022/04/24 09:20:55;;;;;;;13.80;12.15;;;;;;;16.64;44.23;99516.69;5076804;28;20052;-79
2022/04/24 09:23:33;;;;;;;12.15;10.90;;;;;;;16.94;43.21;99514.09;5075668;28;20054;-81
2022/04/24 09:26:00;;;;;;;14.15;11.77;;;;;;;16.91;43.32;99510.06;5073691;28;20052;-80
2022/04/24 09:28:36;;;;;;;16.20;11.18;;;;;;;16.54;43.72;99511.94;5075639;28;20090;-81
2022/04/24 09:31:04;;;;;;;13.90;12.25;;;;;;;16.60;43.58;99503.09;5075940;28;20075;-80
2022/04/24 09:33:36;;;;;;;13.90;11.48;;;;;;;16.54;43.91;99514.59;5075791;28;20090;-80
2022/04/24 09:36:03;;;;;;;13.38;11.60;;;;;;;16.34;44.14;99519.28;5073380;28;20075;-80
2022/04/24 09:38:31;;;;;;;13.00;11.55;;;;;;;16.85;42.97;99511.75;5073996;28;20060;-81
2022/04/24 09:40:57;;;;;;;12.90;11.20;;;;;;;17.01;43.03;99509.53;5075785;28;20135;-80
2022/04/24 09:43:24;;;;;;;17.13;11.93;;;;;;;17.21;43.20;99516.13;5068911;28;20049;-80
2022/04/24 09:45:53;;;;;;;12.25;11.05;;;;;;;17.07;42.83;99514.69;5074979;28;20048;-80
2022/04/24 09:48:21;;;;;;;13.25;11.93;;;;;;;16.97;42.99;99514.47;5073070;28;20509;-80
2022/04/24 09:50:48;;;;;;;14.40;11.60;;;;;;;17.22;42.72;99516.94;5077326;28;20578;-83
2022/04/24 09:53:19;;;;;;;13.30;11.90;;;;;;;16.96;43.19;99517.31;5076124;28;20048;-81
2022/04/24 09:55:50;;;;;;;12.57;11.20;;;;;;;17.19;42.40;99509.44;5065903;28;20045;-81
2022/04/24 09:58:17;;;;;;;12.35;11.05;;;;;;;17.32;42.64;99509.25;5076157;28;20197;-81
2022/04/24 10:00:45;;;;;;;13.23;11.82;;;;;;;16.89;42.42;99502.38;5071140;28;20063;-81
2022/04/24 10:03:15;;;;;;;15.52;11.32;;;;;;;17.00;42.53;99514.00;5073599;28;20049;-82
2022/04/24 10:05:46;;;;;;;13.68;11.65;;;;;;;16.65;43.19;99503.28;5075614;28;20060;-82
2022/04/24 10:08:14;;;;;;;15.15;11.70;;;;;;;17.01;43.17;99509.53;5073999;28;20075;-82
2022/04/24 10:10:40;;;;;;;12.38;10.98;;;;;;;17.14;43.09;99512.78;5092114;28;20047;-82
2022/04/24 10:13:12;;;;;;;14.60;12.05;;;;;;;17.11;42.75;99520.34;5091958;28;20059;-82
2022/04/24 10:15:47;;;;;;;14.18;11.73;;;;;;;17.04;43.39;99514.34;5092254;28;20045;-79
2022/04/24 10:18:35;;;;;;;14.65;12.23;;;;;;;17.12;42.97;99511.38;5091858;28;20055;-80
2022/04/24 10:21:22;;;;;;;17.13;11.50;;;;;;;17.23;43.13;99515.91;5090182;28;20097;-80
2022/04/24 10:23:48;;;;;;;15.45;11.98;;;;;;;17.05;42.40;99524.69;5086757;28;20075;-80
2022/04/24 10:26:20;;;;;;;15.23;12.48;;;;;;;16.95;42.83;99526.28;5084092;28;20499;-81
2022/04/24 10:28:49;;;;;;;13.98;11.57;;;;;;;17.29;42.22;99504.44;5077489;28;20084;-81
2022/04/24 10:31:17;;;;;;;13.18;11.77;;;;;;;17.69;41.27;99514.38;5060033;28;20045;-82
2022/04/24 10:33:58;;;;;;;12.98;11.50;;;;;;;17.72;41.16;99513.94;5076193;28;20456;-81
2022/04/24 10:36:27;;;;;;;12.32;11.02;;;;;;;17.87;41.94;99514.28;5077497;28;20056;-80
2022/04/24 10:38:59;;;;;;;11.85;10.65;;;;;;;17.83;40.98;99513.94;5077109;28;20399;-81
2022/04/24 10:41:31;;;;;;;16.83;11.47;;;;;;;17.62;41.31;99526.88;5074497;28;20521;-81
2022/04/24 10:44:12;;;;;;;16.42;11.95;;;;;;;17.82;41.51;99514.97;5081092;28;20051;-84
2022/04/24 10:46:57;;;;;;;13.57;11.75;;;;;;;17.52;41.07;99501.81;5075255;28;20071;-83
2022/04/24 10:49:36;;;;;;;13.88;11.27;;;;;;;17.85;41.54;99514.53;5065625;28;20139;-81
2022/04/24 10:52:12;;;;;;;13.15;11.45;;;;;;;17.88;41.44;99518.53;5077884;28;20099;-80
2022/04/24 10:55:04;;;;;;;14.55;11.95;;;;;;;17.89;41.54;99528.09;5087084;28;20104;-81
2022/04/24 10:57:50;;;;;;;19.98;12.13;;;;;;;17.72;41.16;99521.88;5076482;28;20052;-81
2022/04/24 11:00:53;;;;;;;13.23;11.32;;;;;;;17.92;40.98;99498.53;5080799;28;20094;-80
2022/04/24 11:03:58;;;;;;;13.45;11.52;;;;;;;17.69;41.05;99517.84;5037446;28;20114;-81
2022/04/24 11:06:32;;;;;;;12.60;11.27;;;;;;;18.06;41.18;99518.41;5072688;28;20101;-81
2022/04/24 11:09:14;;;;;;;12.52;11.20;;;;;;;18.45;40.34;99516.84;5081733;28;20456;-80
2022/04/24 11:11:54;;;;;;;14.48;12.38;;;;;;;18.08;40.58;99536.69;5054586;28;20080;-80
2022/04/24 11:14:35;;;;;;;13.20;10.73;;;;;;;18.23;40.76;99523.81;5077051;28;20044;-82
2022/04/24 11:17:45;;;;;;;14.10;12.07;;;;;;;17.24;41.84;99520.97;5077918;28;20102;-82
2022/04/24 11:26:55;;;;;;;14.07;11.93;;;;;;;18.48;39.68;99516.38;5077889;28;20121;-81
2022/04/24 11:30:02;;;;;;;15.55;11.73;;;;;;;18.30;39.88;99515.75;5082453;28;20079;-82
2022/04/24 11:33:08;;;;;;;12.05;10.77;;;;;;;18.19;39.93;99526.09;5075096;28;20036;-81
2022/04/24 11:36:17;;;;;;;12.82;11.18;;;;;;;18.02;40.78;99516.44;5017538;28;20053;-83
2022/04/24 11:41:53;;;;;;;15.23;11.52;;;;;;;18.56;39.55;99520.50;5062825;28;20151;-81
2022/04/24 11:50:16;;;;;;;12.57;11.27;;;;;;;18.72;39.17;99533.03;5015183;28;20631;-78
2022/04/24 11:52:44;;;;;;;12.50;11.20;;;;;;;18.37;39.76;99545.56;5048239;28;20146;-80
2022/04/24 11:56:01;;;;;;;15.18;11.10;;;;;;;17.98;39.76;99533.81;5078342;28;20052;-80
2022/04/24 11:58:34;;;;;;;;;;;;;;;18.77;39.08;99541.09;5066692;28;20121;-81
2022/04/24 12:01:06;;;;;;;12.02;10.70;;;;;;;18.95;38.55;99532.13;5077333;28;19921;-80
2022/04/24 12:03:35;;;;;;;13.65;11.07;;;;;;;18.41;38.51;99538.75;5077484;28;20056;-80
2022/04/24 12:08:56;;;;;;;11.50;10.38;;;;;;;18.79;38.01;99533.72;5061390;28;20051;-81
2022/04/24 12:14:34;;;;;;;12.63;10.77;;;;;;;19.29;37.04;99530.38;5061146;28;20052;-80
2022/04/24 12:17:29;;;;;;;11.82;10.73;;;;;;;18.41;38.21;99541.41;5068389;28;20052;-80
2022/04/24 12:20:25;;;;;;;13.05;10.75;;;;;;;18.08;38.49;99528.75;5078299;28;20048;-80
2022/04/24 12:23:22;;;;;;;14.10;10.80;;;;;;;18.75;38.15;99539.72;5070282;28;20052;-81
2022/04/24 12:29:45;;;;;;;12.77;11.20;;;;;;;18.05;39.08;99545.09;5038671;28;20057;-80
2022/04/24 12:32:21;;;;;;;11.15;10.05;;;;;;;18.09;39.67;99555.00;5071074;28;20060;-81
2022/04/24 12:35:10;;;;;;;13.35;11.95;;;;;;;17.73;39.22;99544.66;5078245;28;20047;-80
2022/04/24 14:08:31;;;;;;;10.38;8.65;;;;;;;18.84;33.68;99560.31;4991890;28;20087;-81
2022/04/24 14:11:36;;;;;;;9.48;8.35;;;;;;;18.99;34.47;99562.44;5055882;28;20139;-80
2022/04/24 14:14:18;;;;;;;11.50;9.15;;;;;;;18.52;35.34;99557.25;4998385;28;20511;-81
2022/04/24 14:16:50;;;;;;;10.63;9.52;;;;;;;18.23;36.30;99566.97;5008360;28;20050;-81
2022/04/24 14:19:17;;;;;;;10.98;9.88;;;;;;;17.95;36.48;99564.22;5011504;28;20069;-79
2022/04/24 14:22:04;;;;;;;13.38;9.27;;;;;;;17.99;37.11;99565.34;5017246;28;20512;-80
2022/04/24 14:24:37;;;;;;;11.82;10.23;;;;;;;17.36;37.72;99559.84;5003772;28;20197;-79
2022/04/24 14:27:26;;;;;;;10.45;9.32;;;;;;;17.78;37.65;99582.63;5013323;28;20095;-80
2022/04/24 14:29:57;;;;;;;11.15;9.93;;;;;;;17.77;37.31;99574.91;5006352;28;20130;-80
2022/04/24 14:32:25;;;;;;;13.07;9.53;;;;;;;18.15;36.77;99577.91;5007680;28;20063;-81
2022/04/24 14:34:53;;;;;;;13.20;9.85;;;;;;;18.00;36.10;99576.75;5060746;28;20126;-79
2022/04/24 14:37:20;;;;;;;10.75;9.65;;;;;;;17.85;36.83;99574.56;5063766;28;20105;-78
2022/04/24 14:39:47;;;;;;;11.05;9.85;;;;;;;17.87;36.31;99575.16;5058107;28;20079;-78
2022/04/24 14:42:14;;;;;;;13.07;9.15;;;;;;;18.17;36.21;99578.50;5055136;28;20123;-81